Terminal Aerodrome Forecast
Issued by NWS Sterling, VA

Current Version | Previous Version | Graphics & Text | Print | Product List | Glossary On
Versions: 1 2 3 4 5 6 7 8 9 10 11 12 13 14 15 16 17 18 19 20 21 22
000
FTUS41 KLWX 091750
TAFIAD
TAF
KIAD 091750Z 0918/1024 03007KT 1SM -SN OVC008
     FM092000 01004KT 3SM -SN OVC015
     FM092300 33004KT 5SM -SN OVC030
     FM100200 VRB03KT P6SM BKN060
     FM100500 28007KT P6SM BKN100
     FM101400 28013G21KT P6SM FEW250
     FM102200 25009KT P6SM SCT090=

USA.gov is the U.S. government's official web portal to all federal, state and local government web resources and services.